createdAt,value
2018-03-14T00:04:19.442Z,15.33
2018-03-14T00:09:22.542Z,12.80
2018-03-14T00:14:25.650Z,13.50
2018-03-14T00:19:28.743Z,12.30
2018-03-14T00:24:31.555Z,13.45
2018-03-14T00:29:34.651Z,14.05
2018-03-14T00:34:37.828Z,14.77
2018-03-14T00:39:41.043Z,12.73
2018-03-14T00:45:04.023Z,12.75
2018-03-14T00:50:13.874Z,12.25
2018-03-14T00:55:23.086Z,15.15
2018-03-14T01:05:54.698Z,12.60
2018-03-14T01:11:16.909Z,12.55
2018-03-14T01:16:29.126Z,13.63
2018-03-14T01:21:43.751Z,13.90
2018-03-14T01:37:45.060Z,16.77
2018-03-14T01:43:04.442Z,16.75
2018-03-14T01:48:21.445Z,14.70
2018-03-14T01:53:30.029Z,15.63
2018-03-14T01:58:36.355Z,15.20
2018-03-14T02:03:41.257Z,15.30
2018-03-14T02:08:44.387Z,15.00
2018-03-14T02:13:48.432Z,19.50
2018-03-14T02:18:51.415Z,20.20
2018-03-14T02:23:54.811Z,21.15
2018-03-14T02:28:58.005Z,19.87
2018-03-14T02:34:01.213Z,20.17
2018-03-14T02:39:04.117Z,17.52
2018-03-14T02:44:10.379Z,20.33
2018-03-14T02:49:14.568Z,20.65
2018-03-14T02:54:18.376Z,19.35
2018-03-14T02:59:21.251Z,19.77
2018-03-14T03:04:25.174Z,20.02
2018-03-14T03:09:28.773Z,19.20
2018-03-14T03:14:31.592Z,17.55
2018-03-14T03:19:34.681Z,17.87
2018-03-14T03:24:37.564Z,17.60
2018-03-14T03:29:40.444Z,20.35
2018-03-14T03:34:44.173Z,20.77
2018-03-14T03:39:49.212Z,18.95
2018-03-14T03:45:05.603Z,16.57
2018-03-14T03:50:08.437Z,16.50
2018-03-14T03:55:11.304Z,15.85
2018-03-14T04:00:14.342Z,17.75
2018-03-14T04:05:18.044Z,15.00
2018-03-14T04:10:20.841Z,14.82
2018-03-14T04:15:23.577Z,18.33
2018-03-14T04:20:29.721Z,17.98
2018-03-14T04:25:38.235Z,15.80
2018-03-14T04:30:41.013Z,15.20
2018-03-14T04:35:43.862Z,16.30
2018-03-14T04:40:47.392Z,14.60
2018-03-14T04:45:50.453Z,12.98
2018-03-14T04:50:53.861Z,14.50
2018-03-14T04:55:56.937Z,13.62
2018-03-14T05:00:59.711Z,13.93
2018-03-14T05:06:02.506Z,13.77
2018-03-14T05:11:05.395Z,15.43
2018-03-14T05:16:09.876Z,14.05
2018-03-14T05:21:12.653Z,12.93
2018-03-14T05:26:15.934Z,13.00
2018-03-14T05:31:18.762Z,15.07
2018-03-14T05:36:22.485Z,14.35
2018-03-14T05:41:25.280Z,15.45
2018-03-14T05:46:29.765Z,16.25
2018-03-14T05:51:32.626Z,15.25
2018-03-14T05:56:35.423Z,16.40
2018-03-14T06:01:38.253Z,16.25
2018-03-14T06:06:41.094Z,15.93
2018-03-14T06:11:44.633Z,16.35
2018-03-14T06:16:47.394Z,15.85
2018-03-14T06:21:50.234Z,14.73
2018-03-14T06:26:53.620Z,16.37
2018-03-14T06:31:58.819Z,15.52
2018-03-14T06:37:01.942Z,13.38
2018-03-14T06:42:04.934Z,14.25
2018-03-14T06:47:07.953Z,14.73
2018-03-14T06:52:10.732Z,14.43
2018-03-14T06:57:13.524Z,14.60
2018-03-14T07:02:28.216Z,14.73
2018-03-14T07:07:30.968Z,14.87
2018-03-14T07:12:35.512Z,13.60
2018-03-14T07:17:39.070Z,14.85
2018-03-14T07:22:43.808Z,13.60
2018-03-14T07:27:46.786Z,13.93
2018-03-14T07:32:51.760Z,15.15
2018-03-14T07:37:54.578Z,14.52
2018-03-14T07:42:57.891Z,12.82
2018-03-14T07:48:00.646Z,13.38
2018-03-14T07:53:03.490Z,13.70
2018-03-14T07:58:06.228Z,16.30
2018-03-14T08:03:09.749Z,16.77
2018-03-14T08:08:13.479Z,14.10
2018-03-14T08:13:16.321Z,14.93
2018-03-14T08:18:19.139Z,13.40
2018-03-14T08:23:22.006Z,13.18
2018-03-14T08:28:24.800Z,14.55
2018-03-14T08:33:27.946Z,13.85
2018-03-14T08:38:30.748Z,14.73
2018-03-14T08:43:34.676Z,13.27
2018-03-14T08:48:37.953Z,13.88
2018-03-14T08:53:40.724Z,13.98
2018-03-14T08:58:43.519Z,14.75
2018-03-14T09:03:46.435Z,14.20
2018-03-14T09:08:49.486Z,13.43
2018-03-14T09:13:52.313Z,15.00
2018-03-14T09:18:56.094Z,16.17
2018-03-14T09:23:58.999Z,14.85
2018-03-14T09:29:01.939Z,15.98
2018-03-14T09:34:07.564Z,15.88
2018-03-14T09:39:10.936Z,14.75
2018-03-14T09:44:13.976Z,15.57
2018-03-14T09:49:16.826Z,16.23
2018-03-14T09:54:21.758Z,16.40
2018-03-14T09:59:25.407Z,17.53
2018-03-14T10:04:28.278Z,16.00
2018-03-14T10:09:31.967Z,17.35
2018-03-14T10:14:35.731Z,14.90
2018-03-14T10:19:39.418Z,14.68
2018-03-14T10:24:43.484Z,14.93
2018-03-14T10:29:47.329Z,14.00
2018-03-14T10:34:50.358Z,13.20
2018-03-14T10:39:53.268Z,10.55
2018-03-14T10:45:04.639Z,12.18
2018-03-14T10:50:07.838Z,13.00
2018-03-14T10:55:13.321Z,11.40
2018-03-14T11:00:23.093Z,11.07
2018-03-14T11:05:26.225Z,13.30
2018-03-14T11:10:29.129Z,11.83
2018-03-14T11:15:32.717Z,10.80
2018-03-14T11:20:36.445Z,11.50
2018-03-14T11:25:39.586Z,9.95
2018-03-14T11:30:43.337Z,13.57
2018-03-14T11:35:46.448Z,13.43
2018-03-14T11:41:03.617Z,18.23
2018-03-14T11:46:06.471Z,13.30
2018-03-14T11:51:10.010Z,10.07
2018-03-14T11:56:14.587Z,10.07
2018-03-14T12:01:26.887Z,10.00
2018-03-14T12:06:30.112Z,9.65
2018-03-14T12:11:35.291Z,9.57
2018-03-14T12:16:44.946Z,9.40
2018-03-14T12:21:48.309Z,8.90
2018-03-14T12:26:51.199Z,9.10
2018-03-14T12:31:54.214Z,8.52
2018-03-14T12:36:57.094Z,8.45
2018-03-14T12:42:00.104Z,8.60
2018-03-14T12:47:03.007Z,7.87
2018-03-14T12:52:06.722Z,8.10
2018-03-14T12:57:13.085Z,7.28
2018-03-14T13:02:16.620Z,7.40
2018-03-14T13:07:19.408Z,7.28
2018-03-14T13:12:23.027Z,6.80
2018-03-14T13:17:26.240Z,6.37
2018-03-14T13:22:29.078Z,7.35
2018-03-14T13:27:31.937Z,6.93
2018-03-14T13:32:34.748Z,6.82
2018-03-14T13:37:37.658Z,6.47
2018-03-14T13:42:40.505Z,7.75
2018-03-14T13:47:43.294Z,7.70
2018-03-14T13:52:46.221Z,7.73
2018-03-14T13:57:49.822Z,8.67
2018-03-14T14:02:52.583Z,8.63
2018-03-14T14:07:58.794Z,8.60
2018-03-14T14:13:01.580Z,8.00
2018-03-14T14:18:08.046Z,8.43
2018-03-14T14:23:10.882Z,8.57
2018-03-14T14:28:13.905Z,8.57
2018-03-14T14:33:16.979Z,8.18
2018-03-14T14:38:19.744Z,9.70
2018-03-14T14:43:22.549Z,10.50
2018-03-14T14:48:25.685Z,9.90
2018-03-14T14:53:28.732Z,11.00
2018-03-14T14:58:32.636Z,10.40
2018-03-14T15:03:35.687Z,10.47
2018-03-14T15:08:38.555Z,10.43
2018-03-14T15:13:42.224Z,11.45
2018-03-14T15:18:45.204Z,10.80
2018-03-14T15:23:50.028Z,10.15
2018-03-14T15:28:53.737Z,10.75
2018-03-14T15:33:57.916Z,10.25
2018-03-14T15:39:01.216Z,10.35
2018-03-14T15:44:04.171Z,9.85
2018-03-14T15:49:07.334Z,9.83
2018-03-14T15:54:10.357Z,11.27
2018-03-14T15:59:13.206Z,12.27
2018-03-14T16:04:17.293Z,11.38
2018-03-14T16:09:20.577Z,10.88
2018-03-14T16:14:23.784Z,11.23
2018-03-14T16:19:27.849Z,11.00
2018-03-14T16:24:31.012Z,10.70
2018-03-14T16:29:34.364Z,9.80
2018-03-14T16:34:37.480Z,9.77
2018-03-14T16:39:40.366Z,9.43
2018-03-14T16:44:43.624Z,8.90
2018-03-14T16:49:46.833Z,9.60
2018-03-14T16:54:50.536Z,8.68
2018-03-14T16:59:53.404Z,8.40
2018-03-14T17:04:56.182Z,8.40
2018-03-14T17:09:59.005Z,9.10
2018-03-14T17:15:01.815Z,8.60
2018-03-14T17:20:04.611Z,8.60
2018-03-14T17:25:07.597Z,7.70
2018-03-14T17:30:10.894Z,7.30
2018-03-14T17:35:13.950Z,7.70
2018-03-14T17:40:17.074Z,7.87
2018-03-14T17:45:20.954Z,9.37
2018-03-14T17:50:23.902Z,10.90
2018-03-14T17:55:27.587Z,12.67
2018-03-14T18:00:30.609Z,18.00
2018-03-14T18:05:33.660Z,16.08
2018-03-14T18:10:36.769Z,14.10
2018-03-14T18:15:39.894Z,13.13
2018-03-14T18:20:43.263Z,11.10
2018-03-14T18:25:46.670Z,14.93
2018-03-14T18:30:50.575Z,15.30
2018-03-14T18:35:53.768Z,17.00
2018-03-14T18:40:57.342Z,15.30
2018-03-14T18:46:00.250Z,12.03
2018-03-14T18:51:03.504Z,15.73
2018-03-14T18:56:07.747Z,13.70
2018-03-14T19:01:11.370Z,11.82
2018-03-14T19:06:15.210Z,12.23
2018-03-14T19:11:18.382Z,11.00
2018-03-14T19:16:21.608Z,14.83
2018-03-14T19:21:25.517Z,13.13
2018-03-14T19:26:28.566Z,11.75
2018-03-14T19:31:31.489Z,12.73
2018-03-14T19:36:34.977Z,12.97
2018-03-14T19:41:40.825Z,12.63
2018-03-14T19:46:44.780Z,12.27
2018-03-14T19:51:48.145Z,11.35
2018-03-14T19:56:51.236Z,11.25
2018-03-14T20:01:54.151Z,11.98
2018-03-14T20:06:57.255Z,14.03
2018-03-14T20:12:02.040Z,15.25
2018-03-14T20:17:30.431Z,14.87
2018-03-14T20:22:43.935Z,14.27
2018-03-14T20:27:49.578Z,13.37
2018-03-14T20:44:12.086Z,13.73
2018-03-14T20:49:21.516Z,12.82
2018-03-14T20:54:32.300Z,14.15
2018-03-14T20:59:38.925Z,14.38
2018-03-14T21:05:06.556Z,14.18
2018-03-14T21:10:17.373Z,14.27
2018-03-14T21:15:22.791Z,14.25
2018-03-14T21:20:27.326Z,15.00
2018-03-14T21:25:30.659Z,15.70
2018-03-14T21:30:33.426Z,15.45
2018-03-14T21:35:36.536Z,17.77
2018-03-14T21:40:39.801Z,20.02
2018-03-14T21:45:43.650Z,17.23
2018-03-14T21:50:46.769Z,20.00
2018-03-14T21:55:49.724Z,20.20
2018-03-14T22:00:53.008Z,17.70
2018-03-14T22:05:56.122Z,19.55
2018-03-14T22:10:59.539Z,21.12
2018-03-14T22:16:23.042Z,18.77
2018-03-14T22:27:16.592Z,22.83
2018-03-14T22:32:20.868Z,19.73
2018-03-14T22:37:23.681Z,21.33
2018-03-14T22:47:54.487Z,20.57
2018-03-14T22:52:58.798Z,20.40
2018-03-14T22:58:02.162Z,19.50
2018-03-14T23:03:05.361Z,21.40
2018-03-14T23:08:08.676Z,21.17
2018-03-14T23:13:12.193Z,22.50
2018-03-14T23:18:15.487Z,21.55
2018-03-14T23:23:43.903Z,20.98
2018-03-14T23:28:49.619Z,20.97
2018-03-14T23:34:02.643Z,19.98
2018-03-14T23:39:08.912Z,20.80
2018-03-14T23:44:13.456Z,20.88
2018-03-14T23:49:23.453Z,19.67
2018-03-14T23:54:30.848Z,19.80
2018-03-14T23:59:35.330Z,20.10
